Latest Weather Observations for Cerberus

IDV60801

Issued at 6:35 pm EDT Monday 20 October 2014 (issued every 30 minutes, with the page automatically refreshed every 10 minutes)

About weather observations | Map of weather stations | Latest weather observations for VIC | Other Formats
Station Details ID: 086361 Name: CERBERUS Lat: -38.36 Lon: 145.18 Height: 12.69 m
Data from the previous 72 hours. | See also: Recent months at Cerberus
Date/Time
EDT
Temp
°C
App
Temp
°C
Dew
Point
Rel
Hum
%
Delta-T
°C
Wind Press
QNH
hPa
Press
MSL
hPa
Rain
since 9 am
mm
Dir
 
Spd
km/h
Gust
km/h
Spd
kts
Gust
kts
20/06:30pm 15.9 11.4 8.6 62 3.7 SE 22 37 12 20 1028.0 1028.0 0.0
20/06:00pm 16.3 11.4 8.5 60 3.9 SE 24 39 13 21 1027.9 1027.9 0.0
20/05:30pm 16.9 12.9 9.1 60 4.0 SE 20 39 11 21 1028.0 1028.0 0.0
20/05:00pm 17.0 12.7 9.2 60 4.0 SE 22 35 12 19 1028.1 1028.1 0.0
20/04:30pm 16.9 12.2 9.1 60 4.0 SE 24 39 13 21 1028.1 1028.1 0.0
20/04:00pm 17.1 13.0 8.8 58 4.2 SE 20 33 11 18 1028.1 1028.1 0.0
20/03:30pm 17.5 13.3 9.7 60 4.1 SE 22 41 12 22 1028.4 1028.4 0.0
20/03:00pm 17.6 13.5 7.9 53 4.9 SE 19 32 10 17 1028.6 1028.6 0.0
20/02:30pm 17.2 12.8 7.5 53 4.9 SE 20 33 11 18 1028.9 1028.9 0.0
20/02:00pm 17.3 13.0 7.1 51 5.1 SE 19 30 10 16 1029.3 1029.3 0.0
20/01:30pm 16.7 12.4 7.1 53 4.8 SE 19 30 10 16 1029.5 1029.5 0.0
20/01:00pm 16.7 12.8 7.1 53 4.7 SSE 17 24 9 13 1029.6 1029.6 0.0
20/12:30pm 15.4 10.7 5.0 50 4.9 ESE 19 32 10 17 1030.1 1030.1 0.0
20/12:00pm 15.2 10.5 5.1 51 4.7 ESE 19 28 10 15 1030.5 1030.5 0.0
20/11:30am 15.2 10.6 5.4 52 4.7 ESE 19 32 10 17 1030.9 1030.9 0.0
20/11:00am 14.7 9.9 4.7 51 4.6 ESE 19 37 10 20 1031.1 1031.1 0.0
20/10:30am 14.1 9.2 4.1 51 4.5 ESE 19 32 10 17 1031.2 1031.2 0.0
20/10:00am 13.4 8.3 4.0 53 4.2 ESE 20 37 11 20 1031.4 1031.4 0.0
20/09:30am 13.2 8.3 4.1 54 4.1 ESE 19 32 10 17 1031.3 1031.3 0.0
20/09:00am 12.6 7.7 4.1 56 3.8 ESE 19 32 10 17 1031.4 1031.4 0.0
20/08:30am 12.3 6.9 2.7 52 4.2 ESE 20 33 11 18 1031.0 1031.0 0.0
20/08:00am 12.1 7.5 3.6 56 3.7 ESE 17 30 9 16 1030.7 1030.7 0.0
20/07:30am 11.5 7.8 4.5 62 3.2 SE 13 24 7 13 1030.4 1030.4 0.0
20/07:00am 10.0 6.7 2.6 60 3.1 SE 9 17 5 9 1030.6 1030.6 0.0
20/06:30am 9.9 6.2 2.5 60 3.1 SSE 11 19 6 10 1030.6 1030.6 0.0
20/06:00am 9.8 6.6 2.9 62 2.9 SE 9 15 5 8 1030.0 1030.0 0.0
20/05:30am 10.3 6.3 2.9 60 3.2 SE 13 22 7 12 1030.0 1030.0 0.0
20/05:00am 10.8 7.4 4.0 63 3.0 SE 11 19 6 10 1029.6 1029.6 0.0
20/04:30am 10.0 6.8 3.1 62 3.0 SE 9 13 5 7 1029.5 1029.5 0.0
20/04:00am 10.7 7.4 4.4 65 2.8 SE 11 15 6 8 1029.6 1029.6 0.0
20/03:30am 10.7 7.6 5.5 70 2.4 SE 11 19 6 10 1029.4 1029.4 0.0
20/03:00am 11.1 8.5 6.3 72 2.2 SE 9 19 5 10 1029.6 1029.6 0.0
20/02:30am 11.7 8.4 6.4 70 2.5 SSE 13 24 7 13 1029.6 1029.6 0.0
20/02:00am 11.7 8.4 6.6 71 2.4 SSE 13 22 7 12 1029.5 1029.5 0.0
20/01:30am 11.9 8.9 7.8 76 2.0 SSE 13 22 7 12 1029.6 1029.6 0.0
20/01:00am 12.1 8.0 7.8 75 2.1 S 19 32 10 17 1029.6 1029.6 0.0
20/12:30am 12.4 8.5 8.5 77 1.9 S 19 32 10 17 1029.3 1029.3 0.0
20/12:00am 12.4 9.4 7.9 74 2.2 S 13 22 7 12 1029.1 1029.1 0.0
 
Date/Time
EDT
Temp
°C
App
Temp
°C
Dew
Point
Rel
Hum
%
Delta-T
°C
Wind Press
QNH
hPa
Press
MSL
hPa
Rain
since 9 am
mm
Dir
 
Spd
km/h
Gust
km/h
Spd
kts
Gust
kts
19/11:30pm 12.4 8.8 8.3 76 2.0 S 17 26 9 14 1029.1 1029.1 0.0
19/11:00pm 12.4 8.4 8.1 75 2.1 S 19 28 10 15 1029.0 1029.0 0.0
19/10:30pm 12.4 8.6 8.9 79 1.8 S 19 30 10 16 1028.5 1028.5 0.0
19/10:00pm 12.5 9.2 9.5 82 1.5 S 17 24 9 13 1028.5 1028.5 0.0
19/09:30pm 12.5 9.2 9.7 83 1.4 S 17 28 9 15 1027.9 1027.9 0.0
19/09:00pm 12.9 8.5 10.4 85 1.3 S 24 37 13 20 1027.3 1027.3 0.0
19/08:30pm 14.0 11.5 11.0 82 1.6 SSW 15 22 8 12 1026.1 1026.1 0.0
19/08:00pm 13.9 11.4 11.1 83 1.5 SSW 15 24 8 13 1025.0 1025.0 0.0
19/07:30pm 14.0 10.7 11.0 82 1.6 SW 19 30 10 16 1024.4 1024.4 0.0
19/07:00pm 14.4 10.6 11.2 81 1.7 SSW 22 37 12 20 1023.8 1023.8 0.0
19/06:30pm 14.6 11.3 11.7 83 1.6 SW 20 33 11 18 1023.1 1023.1 0.0
19/06:00pm 14.8 11.6 11.8 82 1.6 SW 20 30 11 16 1022.4 1022.4 0.0
19/05:30pm 14.9 11.3 11.7 81 1.7 SW 22 32 12 17 1021.7 1021.7 0.0
19/05:00pm 14.8 11.1 11.6 81 1.7 SSW 22 35 12 19 1021.2 1021.2 0.0
19/04:30pm 15.3 11.3 11.7 79 1.9 SW 24 39 13 21 1020.8 1020.8 0.0
19/04:00pm 15.8 12.8 12.7 82 1.7 SSW 20 30 11 16 1020.0 1020.0 0.0
19/03:30pm 16.0 11.5 12.6 80 1.9 SW 28 41 15 22 1019.9 1019.9 0.0
19/03:00pm 15.6 10.2 12.2 80 1.9 SSW 32 52 17 28 1019.6 1019.6 0.0
19/02:54pm 15.7 10.6 11.9 78 2.1 SSW 30 52 16 28 1019.5 1019.5 0.0
19/02:42pm 19.2 14.8 9.1 52 5.3 WSW 22 33 12 18 1019.2 1019.2 0.0
19/02:30pm 25.4 20.3 7.5 32 9.5 NW 24 35 13 19 1018.5 1018.5 0.0
19/02:00pm 25.7 20.5 5.3 27 10.4 NNW 22 44 12 24 1018.1 1018.1 0.0
19/01:30pm 25.3 19.9 4.4 26 10.5 NNW 22 37 12 20 1018.3 1018.3 0.0
19/01:00pm 25.5 19.2 3.5 24 10.8 N 26 44 14 24 1018.4 1018.4 0.0
19/12:33pm 25.8 19.2 4.3 25 10.8 NNW 28 50 15 27 1018.5 1018.5 0.0
19/12:30pm 25.8 19.5 3.7 24 10.9 NNW 26 44 14 24 1018.5 1018.5 0.0
19/12:00pm 24.8 18.0 2.9 24 10.6 NNW 28 48 15 26 1018.6 1018.6 0.0
19/11:30am 24.7 18.0 3.4 25 10.4 NNW 28 56 15 30 1019.0 1019.0 0.0
19/11:01am 23.9 17.2 3.8 27 9.8 NNW 28 50 15 27 1019.1 1019.1 0.0
19/11:00am 23.9 17.1 3.2 26 10.0 NNW 28 41 15 22 1019.1 1019.1 0.0
19/10:30am 23.4 17.5 3.9 28 9.5 NNW 24 41 13 22 1019.2 1019.2 0.0
19/10:00am 21.7 16.9 5.6 35 8.0 NNW 20 37 11 20 1019.6 1019.6 0.0
19/09:30am 20.9 15.7 5.3 36 7.7 NNW 22 37 12 20 1019.6 1019.6 0.0
19/09:00am 20.2 15.5 5.1 37 7.4 NNW 19 33 10 18 1019.9 1019.9 0.0
19/08:30am 20.4 15.4 4.8 36 7.6 NNW 20 33 11 18 1019.9 1019.9 0.0
19/08:00am 20.3 15.5 5.5 38 7.3 NNW 20 33 11 18 1019.7 1019.7 0.0
19/07:30am 20.3 15.8 4.4 35 7.7 NNW 17 32 9 17 1019.5 1019.5 0.0
19/07:00am 20.3 16.0 3.5 33 8.0 N 15 28 8 15 1019.3 1019.3 0.0
19/06:30am 20.3 16.4 3.5 33 8.0 N 13 30 7 16 1018.9 1018.9 0.0
19/06:00am 20.3 16.9 3.9 34 7.8 N 11 20 6 11 1018.7 1018.7 0.0
19/05:30am 20.0 16.6 4.1 35 7.6 N 11 20 6 11 1018.7 1018.7 0.0
19/05:00am 20.1 16.4 4.2 35 7.6 N 13 30 7 16 1018.8 1018.8 0.0
19/04:30am 20.3 16.5 3.9 34 7.8 N 13 24 7 13 1018.8 1018.8 0.0
19/04:00am 20.3 15.7 3.9 34 7.8 N 17 32 9 17 1018.8 1018.8 0.0
19/03:30am 20.2 16.5 4.7 36 7.5 N 13 24 7 13 1019.2 1019.2 0.0
19/03:00am 19.0 16.4 6.2 43 6.3 N 9 19 5 10 1019.3 1019.3 0.0
19/02:30am 17.3 15.8 8.4 56 4.6 N 6 13 3 7 1019.8 1019.8 0.0
19/02:00am 17.5 17.0 10.6 64 3.7 NE 4 6 2 3 1020.1 1020.1 0.0
19/01:30am 16.2 15.6 10.5 69 3.0 NNE 4 7 2 4 1020.3 1020.3 0.0
19/01:00am 16.5 15.3 10.4 67 3.2 N 7 11 4 6 1020.2 1020.2 0.0
19/12:30am 16.8 15.4 9.7 63 3.7 N 7 15 4 8 1020.6 1020.6 0.0
19/12:00am 16.5 14.7 9.4 63 3.7 N 9 15 5 8 1021.0 1021.0 0.0
 
Date/Time
EDT
Temp
°C
App
Temp
°C
Dew
Point
Rel
Hum
%
Delta-T
°C
Wind Press
QNH
hPa
Press
MSL
hPa
Rain
since 9 am
mm
Dir
 
Spd
km/h
Gust
km/h
Spd
kts
Gust
kts
18/11:30pm 15.9 14.7 10.2 69 3.0 NNE 7 11 4 6 1021.2 1021.2 0.0
18/11:00pm 16.3 14.7 10.2 67 3.2 NNE 9 15 5 8 1021.6 1021.6 0.0
18/10:30pm 16.2 14.9 10.1 67 3.2 NE 7 13 4 7 1021.9 1021.9 0.0
18/10:00pm 15.9 14.9 10.2 69 3.0 NNE 6 9 3 5 1022.4 1022.4 0.0
18/09:30pm 16.2 15.2 10.3 68 3.1 NE 6 9 3 5 1022.7 1022.7 0.0
18/09:00pm 17.1 16.0 10.0 63 3.7 NE 6 9 3 5 1022.5 1022.5 0.0
18/08:30pm 17.6 16.3 9.8 60 4.1 N 7 11 4 6 1022.2 1022.2 0.0
18/08:00pm 17.6 16.3 9.8 60 4.1 NE 7 11 4 6 1022.2 1022.2 0.0
18/07:30pm 19.6 17.9 7.7 46 6.1 N 6 7 3 4 1022.1 1022.1 0.0
18/07:00pm 20.9 18.8 6.8 40 7.1 N 7 15 4 8 1021.7 1021.7 0.0
18/06:30pm 21.4 18.9 6.5 38 7.6 N 9 13 5 7 1021.7 1021.7 0.0
18/06:00pm 21.4 18.9 6.5 38 7.5 N 9 13 5 7 1021.7 1021.7 0.0
18/05:30pm 21.4 19.3 6.5 38 7.6 N 7 11 4 6 1021.7 1021.7 0.0
18/05:00pm 21.8 19.7 8.3 42 7.1 N 9 17 5 9 1021.5 1021.5 0.0
18/04:30pm 21.7 20.2 9.3 45 6.6 NNW 7 11 4 6 1021.6 1021.6 0.0
18/04:00pm 20.9 19.1 7.9 43 6.7 N 7 13 4 7 1021.4 1021.4 0.0
18/03:30pm 20.7 18.2 6.6 40 7.1 N 9 19 5 10 1021.7 1021.7 0.0
18/03:00pm 21.0 17.7 6.2 38 7.4 N 13 24 7 13 1022.7 1022.7 0.0
18/02:30pm 22.0 18.4 6.7 37 7.8 NNW 15 30 8 16 1023.1 1023.1 0.0
18/02:00pm 21.2 17.2 6.7 39 7.3 NNW 17 28 9 15 1023.5 1023.5 0.0
18/01:30pm 20.1 17.3 6.8 42 6.7 NNW 11 17 6 9 1023.9 1023.9 0.0
18/01:00pm 19.9 16.6 6.3 41 6.8 N 13 22 7 12 1024.3 1024.3 0.0
18/12:30pm 20.2 16.5 6.5 41 6.9 NNW 15 26 8 14 1024.8 1024.8 0.0
18/12:00pm 19.3 17.4 9.2 52 5.3 NNE 9 17 5 9 1025.1 1025.1 0.0
18/11:30am 20.1 17.9 9.4 50 5.7 NNE 11 26 6 14 1025.1 1025.1 0.0
18/11:00am 17.2 16.1 10.6 65 3.5 NE 7 13 4 7 1025.8 1025.8 0.0
18/10:30am 16.8 15.8 11.1 69 3.1 ENE 7 13 4 7 1025.9 1025.9 0.0
18/10:00am 15.5 14.4 10.5 72 2.6 NE 7 9 4 5 1026.2 1026.2 0.0
18/09:30am 13.8 12.4 9.6 76 2.2 NE 7 11 4 6 1026.5 1026.5 0.0
18/09:00am 12.7 11.0 9.9 83 1.4 NE 9 13 5 7 1026.6 1026.6 0.0
18/08:30am 11.6 10.2 9.7 88 1.0 NE 7 13 4 7 1026.5 1026.5 0.0
18/08:00am 10.5 9.2 9.1 91 0.7 NNE 6 11 3 6 1026.2 1026.2 0.0
18/07:30am 8.5 7.1 7.1 91 0.7 N 4 6 2 3 1026.1 1026.1 0.0
18/07:00am 7.8 5.8 6.4 91 0.6 N 6 7 3 4 1026.0 1026.0 0.0
18/06:30am 7.5 5.4 6.0 90 0.7 N 6 7 3 4 1025.4 1025.4 0.0
18/06:00am 7.3 5.2 5.8 90 0.7 N 6 7 3 4 1025.2 1025.2 0.0
18/05:30am 7.7 5.6 6.0 89 0.8 N 6 7 3 4 1025.2 1025.2 0.0
18/05:00am 8.0 6.0 6.3 89 0.8 N 6 9 3 5 1024.7 1024.7 0.0
18/04:30am 8.7 7.2 6.8 88 0.9 N 4 6 2 3 1024.8 1024.8 0.0
18/04:00am 9.7 8.0 7.6 87 1.0 N 6 9 3 5 1024.9 1024.9 0.0
18/03:30am 9.8 8.1 7.7 87 1.0 NNE 6 9 3 5 1025.2 1025.2 0.0
18/03:00am 9.9 8.2 7.7 86 1.0 NNE 6 9 3 5 1025.4 1025.4 0.0
18/02:30am 9.9 8.0 7.7 86 1.1 NNE 7 11 4 6 1025.2 1025.2 0.0
18/02:00am 10.2 8.4 8.1 87 1.0 NNE 7 15 4 8 1025.4 1025.4 0.0
18/01:30am 9.9 7.8 8.2 89 0.8 NE 9 19 5 10 1025.4 1025.4 0.0
18/01:00am 7.9 5.8 6.0 88 0.9 ENE 6 7 3 4 1026.0 1026.0 0.0
18/12:30am 6.6 4.6 4.4 86 0.9 S 4 6 2 3 1026.2 1026.2 0.0
18/12:00am 6.9 5.7 4.7 86 1.0 CALM 0 0 0 0 1026.6 1026.6 0.0
 
Date/Time
EDT
Temp
°C
App
Temp
°C
Dew
Point
Rel
Hum
%
Delta-T
°C
Wind Press
QNH
hPa
Press
MSL
hPa
Rain
since 9 am
mm
Dir
 
Spd
km/h
Gust
km/h
Spd
kts
Gust
kts
17/11:30pm 7.3 6.1 4.8 84 1.1 CALM 0 0 0 0 1026.8 1026.8 0.0
17/11:00pm 7.8 6.7 4.9 82 1.3 CALM 0 0 0 0 1026.8 1026.8 0.0
17/10:30pm 8.8 7.8 5.5 80 1.5 CALM 0 0 0 0 1027.2 1027.2 0.0
17/10:00pm 9.1 7.3 5.5 78 1.6 S 4 4 2 2 1027.4 1027.4 0.0
17/09:30pm 9.3 7.4 5.1 75 1.9 S 4 4 2 2 1027.2 1027.2 0.0
17/09:00pm 9.8 7.6 5.2 73 2.1 S 6 7 3 4 1027.1 1027.1 0.0
17/08:30pm 9.8 7.3 5.0 72 2.2 S 7 9 4 5 1027.0 1027.0 0.0
17/08:00pm 10.5 8.3 5.3 70 2.4 S 6 9 3 5 1026.4 1026.4 0.0
17/07:30pm 11.6 9.4 5.5 66 2.8 S 6 7 3 4 1026.1 1026.1 0.0
17/07:00pm 12.6 10.3 5.8 63 3.2 S 7 13 4 7 1026.0 1026.0 0.0

Other Formats:

Comma delimited format used in spreadsheet applications
http://www.bom.gov.au/fwo/IDV60801/IDV60801.94898.axf

JavaScript Object Notation format (JSON) in row-major order
http://www.bom.gov.au/fwo/IDV60801/IDV60801.94898.json